createdAt,value
2019-05-14T00:04:43.781Z,91.00
2019-05-14T00:10:45.963Z,91.00
2019-05-14T00:16:48.320Z,91.40
2019-05-14T00:22:52.143Z,91.90
2019-05-14T00:28:54.872Z,92.20
2019-05-14T00:34:57.064Z,92.40
2019-05-14T00:41:01.711Z,93.00
2019-05-14T00:47:03.506Z,93.10
2019-05-14T00:53:05.957Z,92.90
2019-05-14T00:59:08.205Z,93.40
2019-05-14T01:05:12.363Z,93.20
2019-05-14T01:11:14.679Z,93.50
2019-05-14T01:17:17.067Z,93.50
2019-05-14T01:23:21.481Z,93.70
2019-05-14T01:29:23.284Z,94.20
2019-05-14T01:35:25.475Z,95.60
2019-05-14T01:41:27.675Z,95.30
2019-05-14T01:47:31.991Z,95.70
2019-05-14T01:53:34.211Z,96.20
2019-05-14T01:59:36.554Z,97.00
2019-05-14T02:05:38.821Z,96.80
2019-05-14T02:11:41.605Z,97.00
2019-05-14T02:17:45.010Z,96.80
2019-05-14T02:23:47.241Z,96.90
2019-05-14T02:29:51.648Z,96.00
2019-05-14T02:35:53.701Z,95.20
2019-05-14T02:41:58.766Z,95.40
2019-05-14T02:48:02.063Z,95.70
2019-05-14T02:54:04.300Z,96.20
2019-05-14T03:00:10.208Z,96.40
2019-05-14T03:06:11.389Z,96.90
2019-05-14T03:12:13.765Z,96.80
2019-05-14T03:18:16.000Z,97.10
2019-05-14T03:24:21.094Z,97.40
2019-05-14T03:30:23.688Z,97.50
2019-05-14T03:36:28.938Z,97.70
2019-05-14T03:42:31.919Z,97.50
2019-05-14T03:48:40.079Z,97.80
2019-05-14T03:54:41.351Z,98.00
2019-05-14T04:00:50.102Z,98.10
2019-05-14T04:06:53.768Z,98.10
2019-05-14T04:12:59.864Z,97.50
2019-05-14T04:19:01.364Z,95.60
2019-05-14T04:25:10.536Z,90.60
2019-05-14T04:31:12.674Z,86.40
2019-05-14T04:37:15.197Z,79.70
2019-05-14T04:43:19.174Z,72.50
2019-05-14T04:49:23.577Z,66.90
2019-05-14T04:55:29.438Z,57.90
2019-05-14T05:01:31.715Z,54.40
2019-05-14T05:07:39.390Z,51.20
2019-05-14T05:13:41.235Z,48.20
2019-05-14T05:19:45.617Z,44.60
2019-05-14T05:25:49.033Z,42.20
2019-05-14T05:31:51.295Z,41.10
2019-05-14T05:37:53.565Z,38.80
2019-05-14T05:43:55.846Z,37.40
2019-05-14T05:50:00.216Z,37.20
2019-05-14T05:56:02.451Z,36.80
2019-05-14T06:02:05.134Z,35.40
2019-05-14T06:08:10.425Z,34.40
2019-05-14T06:14:13.811Z,33.50
2019-05-14T06:20:16.045Z,32.40
2019-05-14T06:26:19.327Z,30.90
2019-05-14T06:32:23.439Z,30.30
2019-05-14T06:38:26.220Z,30.20
2019-05-14T06:44:29.494Z,31.10
2019-05-14T06:50:34.051Z,30.00
2019-05-14T06:56:38.477Z,32.00
2019-05-14T07:02:43.714Z,31.10
2019-05-14T07:08:44.331Z,31.40
2019-05-14T07:14:48.199Z,31.00
2019-05-14T07:20:50.528Z,29.90
2019-05-14T07:26:53.223Z,28.80
2019-05-14T07:32:55.567Z,28.60
2019-05-14T07:39:00.278Z,31.30
2019-05-14T07:45:01.931Z,28.90
2019-05-14T07:51:04.193Z,29.10
2019-05-14T07:57:08.465Z,28.20
2019-05-14T08:03:10.468Z,33.10
2019-05-14T08:09:12.647Z,33.00
2019-05-14T08:15:20.023Z,29.70
2019-05-14T08:21:20.244Z,29.60
2019-05-14T08:27:27.965Z,26.80
2019-05-14T08:33:28.934Z,27.70
2019-05-14T08:39:30.888Z,29.10
2019-05-14T08:45:33.255Z,29.10
2019-05-14T08:51:35.685Z,29.00
2019-05-14T08:57:38.871Z,28.20
2019-05-14T09:03:41.456Z,31.10
2019-05-14T09:09:43.691Z,34.10
2019-05-14T09:15:46.009Z,31.60
2019-05-14T09:21:49.693Z,31.70
2019-05-14T09:27:51.961Z,36.60
2019-05-14T09:33:54.111Z,38.80
2019-05-14T09:39:58.409Z,35.10
2019-05-14T09:46:00.639Z,42.20
2019-05-14T09:52:03.276Z,39.40
2019-05-14T09:58:05.431Z,39.40
2019-05-14T10:04:09.203Z,41.90
2019-05-14T10:10:11.800Z,39.40
2019-05-14T10:16:13.977Z,40.90
2019-05-14T10:22:16.152Z,44.90
2019-05-14T10:28:19.421Z,46.70
2019-05-14T10:34:23.746Z,48.50
2019-05-14T10:40:29.067Z,48.20
2019-05-14T10:46:30.240Z,47.20
2019-05-14T10:52:32.556Z,49.10
2019-05-14T10:58:34.836Z,46.30
2019-05-14T11:04:38.995Z,46.80
2019-05-14T11:10:42.187Z,47.70
2019-05-14T11:16:44.925Z,51.20
2019-05-14T11:22:49.107Z,49.70
2019-05-14T11:28:51.552Z,46.50
2019-05-14T11:34:54.640Z,48.70
2019-05-14T11:40:58.825Z,46.60
2019-05-14T11:47:02.654Z,47.10
2019-05-14T11:53:08.471Z,46.00
2019-05-14T11:59:11.579Z,41.60
2019-05-14T12:05:13.961Z,42.10
2019-05-14T12:11:19.312Z,46.00
2019-05-14T12:17:20.917Z,50.50
2019-05-14T12:23:23.256Z,45.20
2019-05-14T12:29:25.509Z,41.30
2019-05-14T12:35:29.258Z,46.00
2019-05-14T12:41:31.816Z,48.20
2019-05-14T12:47:34.045Z,48.00
2019-05-14T12:53:39.762Z,47.50
2019-05-14T12:59:42.031Z,47.80
2019-05-14T13:05:44.279Z,45.80
2019-05-14T13:11:47.997Z,46.40
2019-05-14T13:17:50.705Z,46.20
2019-05-14T13:23:53.076Z,46.50
2019-05-14T13:29:56.019Z,45.60
2019-05-14T13:35:59.492Z,46.10
2019-05-14T13:42:01.738Z,45.30
2019-05-14T13:48:04.071Z,46.80
2019-05-14T13:54:08.673Z,48.10
2019-05-14T14:00:12.256Z,45.70
2019-05-14T14:06:14.738Z,43.40
2019-05-14T14:12:17.044Z,43.20
2019-05-14T14:18:20.951Z,44.70
2019-05-14T14:24:23.187Z,52.10
2019-05-14T14:30:25.398Z,58.40
2019-05-14T14:36:29.953Z,61.30
2019-05-14T14:42:35.531Z,62.00
2019-05-14T14:48:39.334Z,61.60
2019-05-14T14:54:42.674Z,62.70
2019-05-14T15:00:44.932Z,64.40
2019-05-14T15:06:50.441Z,63.90
2019-05-14T15:12:51.353Z,64.10
2019-05-14T15:18:53.557Z,60.80
2019-05-14T15:24:58.386Z,59.70
2019-05-14T15:30:59.809Z,56.50
2019-05-14T15:37:02.230Z,56.20
2019-05-14T15:43:04.385Z,55.70
2019-05-14T15:49:09.002Z,57.00
2019-05-14T15:55:12.196Z,57.80
2019-05-14T16:01:14.570Z,58.10
2019-05-14T16:07:18.596Z,58.30
2019-05-14T16:13:21.330Z,57.90
2019-05-14T16:19:23.800Z,56.80
2019-05-14T16:25:28.463Z,59.50
2019-05-14T16:31:31.505Z,62.30
2019-05-14T16:37:33.895Z,67.70
2019-05-14T16:43:36.277Z,68.40
2019-05-14T16:49:38.585Z,69.50
2019-05-14T16:55:48.754Z,69.10
2019-05-14T17:01:50.465Z,70.50
2019-05-14T17:07:52.609Z,70.40
2019-05-14T17:13:58.014Z,70.70
2019-05-14T17:20:00.826Z,69.90
2019-05-14T17:26:03.017Z,71.40
2019-05-14T17:32:08.690Z,71.40
2019-05-14T17:38:12.034Z,71.70
2019-05-14T17:44:14.472Z,72.20
2019-05-14T17:50:18.357Z,73.40
2019-05-14T17:56:24.970Z,73.50
2019-05-14T18:02:28.723Z,73.30
2019-05-14T18:08:31.163Z,72.30
2019-05-14T18:14:33.498Z,76.50
2019-05-14T18:20:39.445Z,75.90
2019-05-14T18:26:42.257Z,76.20
2019-05-14T18:32:45.153Z,76.70
2019-05-14T18:38:49.389Z,78.00
2019-05-14T18:44:51.871Z,78.70
2019-05-14T18:50:54.971Z,79.30
2019-05-14T18:57:01.384Z,79.70
2019-05-14T19:03:03.642Z,80.10
2019-05-14T19:09:10.519Z,81.30
2019-05-14T19:15:11.612Z,82.10
2019-05-14T19:21:13.813Z,82.20
2019-05-14T19:27:16.141Z,82.60
2019-05-14T19:33:20.559Z,82.70
2019-05-14T19:39:22.645Z,82.90
2019-05-14T19:45:24.848Z,82.90
2019-05-14T19:51:28.507Z,83.20
2019-05-14T19:57:32.881Z,83.40
2019-05-14T20:03:35.196Z,83.20
2019-05-14T20:09:38.809Z,83.10
2019-05-14T20:15:41.285Z,83.50
2019-05-14T20:21:43.516Z,84.00
2019-05-14T20:27:47.898Z,84.60
2019-05-14T20:33:49.903Z,86.00
2019-05-14T20:39:52.514Z,87.90
2019-05-14T20:45:55.760Z,89.70
2019-05-14T20:51:59.483Z,90.40
2019-05-14T20:58:04.060Z,90.20
2019-05-14T21:04:08.768Z,90.50
2019-05-14T21:10:10.433Z,90.40
2019-05-14T21:16:12.588Z,90.50
2019-05-14T21:22:14.790Z,90.80
2019-05-14T21:28:19.352Z,90.60
2019-05-14T21:34:21.635Z,90.60
2019-05-14T21:40:23.910Z,90.80
2019-05-14T21:46:28.823Z,90.80
2019-05-14T21:52:30.067Z,90.90
2019-05-14T21:58:38.522Z,91.00
2019-05-14T22:04:40.437Z,91.10
2019-05-14T22:10:42.567Z,91.10
2019-05-14T22:16:44.852Z,91.20
2019-05-14T22:22:48.374Z,91.20
2019-05-14T22:28:51.803Z,91.00
2019-05-14T22:34:53.975Z,91.20
2019-05-14T22:40:56.151Z,91.20
2019-05-14T22:46:58.759Z,91.40
2019-05-14T22:53:01.096Z,91.60
2019-05-14T22:59:03.433Z,91.80
2019-05-14T23:05:07.875Z,92.20
2019-05-14T23:11:10.127Z,92.10
2019-05-14T23:17:12.475Z,92.20
2019-05-14T23:23:14.666Z,91.90
2019-05-14T23:29:16.867Z,92.10
2019-05-14T23:35:19.118Z,91.90
2019-05-14T23:41:21.419Z,92.10
2019-05-14T23:47:23.693Z,92.00
2019-05-14T23:53:25.862Z,92.20
2019-05-14T23:59:29.356Z,92.00
